Meteo Giornale » Osservazioni meteo Svizzera » Grenchen

ore: 22:20 - Osservazioni Meteo Grenchen
Lat. 47° 10' N Lon. 7° 24' E Alt. 430 metri s.l.m.

coperto Europe/Zurich

14 °C

Coperto

Temp. 24 Ore

11 °C

19 °C

Nord

7.4 Km/h

Dew point 10 °C

Umidità 76 %

Visibilità  10 Km

Il sole sorge alle ore 05:47

Il sole tramonta alle ore 21:06

Data e Ora Cielo e Fenomeni T °C DP °C Um. % Pres. hPa Vis. km Vento km/h
Oggi h: 22:20 coperto Coperto 14 10 76 1005 10 N 7.4
Oggi h: 21:50 coperto_pioggia Pioggia Debole 15 9 67 1005 10 N 1.8
Oggi h: 21:20 coperto_pioggia Pioggia Debole 15 9 67 1005 10 S 7.4
Oggi h: 20:50 molto_nuvoloso Molto Nuvoloso 15 10 72 1004 10 N 5.5
Oggi h: 20:20 molto_nuvoloso Molto Nuvoloso 16 9 63 1004 10 N 5.5
Oggi h: 19:50 molto_nuvoloso Molto Nuvoloso 16 9 63 1004 10 O/NO 11.1
Oggi h: 19:20 molto_nuvoloso Molto Nuvoloso 17 9 59 1004 10 N/NO 9.3
Oggi h: 18:50 molto_nuvoloso Molto Nuvoloso 16 12 77 1004 10 SO 18.5
Oggi h: 18:20 molto_nuvoloso Molto Nuvoloso 17 12 72 1004 10 S/SO 18.5
Oggi h: 17:50 sereno Sereno 18 7 48 1004 10 NO 9.3
Oggi h: 17:20 coperto Coperto 18 8 51 1004 10 N 5.5
Oggi h: 16:50 nuvoloso Nuvoloso 17 8 55 1004 10 N 5.5
Oggi h: 16:20 molto_nuvoloso Molto Nuvoloso 19 10 55 1004 10 N/NO 13
Oggi h: 15:50 nuvoloso Nuvoloso 17 8 55 1004 10 N 3.7
Oggi h: 15:20 molto_nuvoloso Molto Nuvoloso 17 9 59 1004 10 N 13
Oggi h: 14:50 molto_nuvoloso Molto Nuvoloso 16 9 63 1004 10 E 7.4
Oggi h: 14:20 molto_nuvoloso Molto Nuvoloso 16 11 72 1004 10 E 11.1
Oggi h: 13:50 molto_nuvoloso Molto Nuvoloso 16 11 72 1005 10 E/SE 7.4
Oggi h: 13:20 molto_nuvoloso Molto Nuvoloso 15 12 82 1005 10 N 3.7
Oggi h: 12:20 molto_nuvoloso Molto Nuvoloso 14 10 76 1005 10 N 1.8
Oggi h: 11:50 molto_nuvoloso Molto Nuvoloso 15 12 82 1005 10 N 1.8
Oggi h: 11:20 molto_nuvoloso Molto Nuvoloso 14 11 82 1005 10 N 5.5
Oggi h: 10:50 molto_nuvoloso Molto Nuvoloso 15 12 82 1005 10 N 1.8
Oggi h: 10:20 molto_nuvoloso Molto Nuvoloso 14 10 76 1005 10 N 3.7
Oggi h: 09:50 molto_nuvoloso Molto Nuvoloso 14 10 76 1005 10 N 3.7
Oggi h: 09:20 molto_nuvoloso Molto Nuvoloso 13 11 87 1005 10 N 1.8
Oggi h: 08:50 molto_nuvoloso Rovescio nelle Vicinanze 13 11 87 1005 10 N 1.8
Oggi h: 08:20 coperto Nebbia nelle Vicinanze 12 12 100 1005 10 N 0
Oggi h: 07:50 coperto Nebbia nelle Vicinanze 12 12 100 1005 10 N 1.8
Oggi h: 07:20 coperto_pioggia Pioviggine 12 12 100 1005 10 N 0
Oggi h: 06:50 foschia Foschia 11 11 100 1005 3 N 1.8
Oggi h: 06:20 coperto_pioggia Pioggia Debole 11 11 100 1005 3 N 1.8
Oggi h: 05:50 coperto_pioggia Pioggia Debole 11 11 100 1005 4 N 1.8
Oggi h: 05:20 coperto_pioggia Pioggia Debole 11 11 100 1005 6 N 0
Oggi h: 04:50 coperto_pioggia Pioggia Debole 11 11 100 1005 3 N 0
Oggi h: 04:20 coperto_pioggia Pioggia Debole 11 11 100 1006 4 N 3.7
Oggi h: 03:50 coperto_pioggia Pioggia Debole 11 11 100 1006 4 N 5.5
Oggi h: 03:20 coperto_pioggia Pioggia 11 11 100 1006 7 N 5.5
Oggi h: 02:50 coperto_pioggia Pioviggine 12 11 93 1006 10 N 5.5
Oggi h: 02:20 coperto_pioggia Pioviggine 12 11 93 1006 10 N 5.5
Oggi h: 01:50 coperto_pioggia Pioggia Debole 12 11 93 1006 10 N 5.5
Oggi h: 01:20 coperto_pioggia Pioggia Debole 12 10 87 1006 10 N 5.5
Oggi h: 00:50 coperto_pioggia Pioggia Debole 12 11 93 1006 10 S/SO 7.4
Oggi h: 00:20 coperto_pioggia Pioggia Debole 12 11 93 1006 10 N 5.5
Ieri h: 23:50 coperto_pioggia Pioggia Debole 12 11 93 1006 10 N 3.7
Ieri h: 23:20 coperto_pioggia Pioggia 12 11 93 1006 8 SO 7.4
Ieri h: 22:50 coperto_pioggia Pioggia Debole 13 11 87 1006 10 N 1.8